Time;durP1;ratioP1;P1;durP2;ratioP2;P2;SDS_P1;SDS_P2;PMS_P1;PMS_P2;Temp;Humidity;BMP_temperature;BMP_pressure;BME280_temperature;BME280_humidity;BME280_pressure;Samples;Min_cycle;Max_cycle;Signal;HPM_P1;HPM_P2
2023/01/31 00:00:00;;;;;;;;;;;2.60;99.90;;;;;;5096396;28;20379;-68
2023/01/31 00:02:25;;;;;;;;;;;2.60;99.90;;;;;;5095793;28;19919;-68
2023/01/31 00:04:51;;;;;;;;;;;2.60;99.90;;;;;;5095647;28;19968;-68
2023/01/31 00:07:16;;;;;;;;;;;2.60;99.90;;;;;;5095934;28;19912;-67
2023/01/31 00:09:42;;;;;;;;;;;2.60;99.90;;;;;;5094600;28;19912;-68
2023/01/31 00:12:07;;;;;;;;;;;2.60;99.90;;;;;;5095442;28;20365;-67
2023/01/31 00:14:33;;;;;;;;;;;2.60;99.90;;;;;;5095423;28;19920;-68
2023/01/31 00:16:59;;;;;;;;;;;2.60;99.90;;;;;;5095821;28;19916;-68
2023/01/31 00:19:24;;;;;;;;;;;2.60;99.90;;;;;;5095817;28;19946;-68
2023/01/31 00:21:50;;;;;;;;;;;2.60;99.90;;;;;;5077445;28;19938;-68
2023/01/31 00:24:15;;;;;;;;;;;2.60;99.90;;;;;;5078325;28;20344;-68
2023/01/31 00:26:41;;;;;;;;;;;2.60;99.90;;;;;;5075255;28;19943;-68
2023/01/31 00:29:07;;;;;;;;;;;2.60;99.90;;;;;;5075364;28;20253;-68
2023/01/31 00:31:33;;;;;;;;;;;2.60;99.90;;;;;;5075099;28;20431;-68
2023/01/31 00:33:59;;;;;;;;;;;2.60;99.90;;;;;;5089442;28;19989;-68
2023/01/31 00:36:27;;;;;;;;;;;2.60;99.90;;;;;;5095291;28;19920;-68
2023/01/31 00:38:53;;;;;;;;;;;2.60;99.90;;;;;;5077166;28;19912;-68
2023/01/31 00:41:19;;;;;;;;;;;2.60;99.90;;;;;;5095365;28;20367;-68
2023/01/31 00:43:45;;;;;;;;;;;2.60;99.90;;;;;;5082631;28;20074;-68
2023/01/31 00:46:11;;;;;;;;;;;2.60;99.90;;;;;;5057103;28;19920;-67
2023/01/31 00:48:36;;;;;;;;;;;2.60;99.90;;;;;;5074972;28;19912;-68
2023/01/31 00:51:02;;;;;;;;;;;2.60;99.90;;;;;;5074795;28;20346;-69
2023/01/31 00:53:28;;;;;;;;;;;2.70;99.90;;;;;;5084367;28;19912;-69
2023/01/31 00:55:55;;;;;;;;;;;3.00;99.90;;;;;;5094728;28;20089;-69
2023/01/31 00:58:21;;;;;;;;;;;2.70;99.90;;;;;;5095021;28;20003;-70
2023/01/31 01:00:46;;;;;;;;;;;2.80;99.90;;;;;;5076715;28;19962;-69
2023/01/31 01:03:12;;;;;;;;;;;2.70;99.90;;;;;;5069216;28;20283;-69
2023/01/31 01:05:38;;;;;;;;;;;2.80;99.90;;;;;;5074833;28;19916;-69
2023/01/31 01:08:04;;;;;;;;;;;2.90;99.90;;;;;;5083160;28;19964;-69
2023/01/31 01:10:29;;;;;;;;;;;2.80;99.90;;;;;;5076485;28;20007;-69
2023/01/31 01:12:55;;;;;;;;;;;2.70;99.90;;;;;;5089131;28;19986;-69
2023/01/31 01:15:21;;;;;;;;;;;;;;;;;;5073666;28;19920;-70
2023/01/31 01:17:47;;;;;;;;;;;;;;;;;;5083208;28;19920;-70
2023/01/31 01:20:12;;;;;;;;;;;2.70;99.90;;;;;;5094808;28;20275;-68
2023/01/31 01:22:38;;;;;;;;;;;2.70;99.90;;;;;;5094283;28;20266;-67
2023/01/31 01:25:04;;;;;;;;;;;2.70;99.90;;;;;;5093112;28;20445;-68
2023/01/31 01:27:30;;;;;;;;;;;2.70;99.90;;;;;;5094682;28;19919;-68
2023/01/31 01:29:57;;;;;;;;;;;2.80;99.90;;;;;;5094704;28;20375;-68
2023/01/31 01:32:22;;;;;;;;;;;2.70;99.90;;;;;;5094295;28;20355;-68
2023/01/31 01:34:48;;;;;;;;;;;2.70;99.90;;;;;;5094376;28;19920;-68
2023/01/31 01:37:18;;;;;;;;;;;2.80;99.90;;;;;;5093207;28;20313;-68
2023/01/31 01:39:45;;;;;;;;;;;2.80;99.90;;;;;;5094549;28;20477;-68
2023/01/31 01:42:14;;;;;;;;;;;2.80;99.90;;;;;;5094461;28;19918;-68
2023/01/31 01:44:40;;;;;;;;;;;2.80;99.90;;;;;;5094632;28;20000;-67
2023/01/31 01:47:12;;;;;;;;;;;2.80;99.90;;;;;;5094326;28;19962;-68
2023/01/31 01:49:38;;;;;;;;;;;2.70;99.90;;;;;;5094259;28;20245;-68
2023/01/31 01:52:05;;;;;;;;;;;2.70;99.90;;;;;;5092666;28;19919;-68
2023/01/31 01:54:51;;;;;;;;;;;2.70;99.90;;;;;;5092812;28;19923;-68
2023/01/31 01:57:20;;;;;;;;;;;2.70;99.90;;;;;;5093680;28;19916;-68
2023/01/31 01:59:51;;;;;;;;;;;2.70;99.90;;;;;;5094216;28;19996;-68
2023/01/31 02:02:17;;;;;;;;;;;2.70;99.90;;;;;;5094040;28;19943;-68
2023/01/31 02:04:44;;;;;;;;;;;2.70;99.90;;;;;;5092973;28;19962;-68
2023/01/31 02:07:10;;;;;;;;;;;2.70;99.90;;;;;;5094473;28;20367;-68
2023/01/31 02:09:49;;;;;;;;;;;2.70;99.90;;;;;;5094315;28;19946;-67
2023/01/31 02:12:14;;;;;;;;;;;2.70;99.90;;;;;;5094041;28;19966;-68
2023/01/31 02:14:41;;;;;;;;;;;2.70;99.90;;;;;;5094041;28;19916;-68
2023/01/31 02:17:10;;;;;;;;;;;2.70;99.90;;;;;;5093766;28;19920;-68
2023/01/31 02:19:39;;;;;;;;;;;2.70;99.90;;;;;;5093992;28;19977;-68
2023/01/31 02:22:11;;;;;;;;;;;2.80;99.90;;;;;;5077899;28;19913;-67
2023/01/31 02:25:00;;;;;;;;;;;2.80;99.90;;;;;;5073999;28;20018;-68
2023/01/31 02:27:25;;;;;;;;;;;2.80;99.90;;;;;;5075192;28;19912;-68
2023/01/31 02:30:06;;;;;;;;;;;2.80;99.90;;;;;;5077628;28;19912;-68
2023/01/31 02:32:32;;;;;;;;;;;2.80;99.90;;;;;;5097448;28;19951;-68
2023/01/31 02:35:04;;;;;;;;;;;2.80;99.90;;;;;;5097765;28;19977;-68
2023/01/31 02:37:32;;;;;;;;;;;2.70;99.90;;;;;;5097713;28;20332;-67
2023/01/31 02:40:07;;;;;;;;;;;2.70;99.90;;;;;;5079460;28;20248;-68
2023/01/31 02:42:37;;;;;;;;;;;2.70;99.90;;;;;;5059512;28;19996;-68
2023/01/31 02:45:08;;;;;;;;;;;2.70;99.90;;;;;;5076984;28;19912;-67
2023/01/31 02:47:37;;;;;;;;;;;2.70;99.90;;;;;;5077021;28;19916;-67
2023/01/31 02:50:09;;;;;;;;;;;2.70;99.90;;;;;;5059104;28;19919;-68
2023/01/31 02:52:44;;;;;;;;;;;2.70;99.90;;;;;;5096751;28;20394;-68
2023/01/31 02:57:55;;;;;;;;;;;2.60;99.90;;;;;;5097481;28;19918;-68
2023/01/31 03:00:21;;;;;;;;;;;2.70;99.90;;;;;;5096349;28;20333;-68
2023/01/31 03:02:46;;;;;;;;;;;2.60;99.90;;;;;;5059038;28;20368;-68
2023/01/31 03:05:16;;;;;;;;;;;2.70;99.90;;;;;;5061419;28;20008;-67
2023/01/31 03:07:43;;;;;;;;;;;2.60;99.90;;;;;;5076789;28;19956;-67
2023/01/31 03:10:20;;;;;;;;;;;2.70;99.90;;;;;;5058818;28;19912;-68
2023/01/31 03:12:55;;;;;;;;;;;2.70;99.90;;;;;;5060573;28;19919;-68
2023/01/31 03:17:30;;;;;;;;;;;2.70;99.90;;;;;;5076493;28;20315;-68
2023/01/31 03:18:15;;;;;;;;;;;2.70;99.90;;;;;;5088596;28;19916;-68
2023/01/31 03:20:43;;;;;;;;;;;2.70;99.90;;;;;;5096771;28;19965;-68
2023/01/31 03:23:17;;;;;;;;;;;2.70;99.90;;;;;;5095635;28;19912;-67
2023/01/31 03:25:43;;;;;;;;;;;2.70;99.90;;;;;;5096669;28;19912;-67
2023/01/31 03:28:11;;;;;;;;;;;2.70;99.90;;;;;;5095384;28;19908;-68
2023/01/31 03:30:39;;;;;;;;;;;2.70;99.90;;;;;;5095451;28;21575;-67
2023/01/31 03:33:09;;;;;;;;;;;2.60;99.90;;;;;;5096735;28;19912;-67
2023/01/31 03:35:36;;;;;;;;;;;2.60;99.90;;;;;;5096743;28;19927;-68
2023/01/31 03:38:20;;;;;;;;;;;2.60;99.90;;;;;;5096458;28;19977;-67
2023/01/31 03:40:51;;;;;;;;;;;2.70;99.90;;;;;;5096128;28;19912;-68
2023/01/31 03:43:36;;;;;;;;;;;2.70;99.90;;;;;;5096502;28;20276;-68
2023/01/31 03:46:31;;;;;;;;;;;2.60;99.90;;;;;;5096336;28;19916;-68
2023/01/31 03:48:57;;;;;;;;;;;2.60;99.90;;;;;;5081927;28;19912;-67
2023/01/31 03:51:26;;;;;;;;;;;2.60;99.90;;;;;;5095999;28;20355;-68
2023/01/31 03:53:53;;;;;;;;;;;2.60;99.90;;;;;;5096090;28;19946;-67
2023/01/31 03:56:19;;;;;;;;;;;2.50;99.90;;;;;;5095934;28;19965;-68
2023/01/31 03:58:49;;;;;;;;;;;2.50;99.90;;;;;;5095923;28;19912;-68
2023/01/31 04:01:16;;;;;;;;;;;2.50;99.90;;;;;;5095851;28;20005;-68
2023/01/31 04:03:48;;;;;;;;;;;2.50;99.90;;;;;;5096231;28;19912;-68
2023/01/31 04:06:14;;;;;;;;;;;2.50;99.90;;;;;;5096112;28;19963;-68
2023/01/31 04:08:40;;;;;;;;;;;2.60;99.90;;;;;;5094669;28;19952;-68
2023/01/31 04:11:09;;;;;;;;;;;2.70;99.90;;;;;;5096011;28;19912;-68
2023/01/31 04:13:34;;;;;;;;;;;2.50;99.90;;;;;;5096235;28;19912;-68
2023/01/31 04:16:00;;;;;;;;;;;2.80;99.90;;;;;;5095878;28;19924;-68
2023/01/31 04:18:26;;;;;;;;;;;2.70;99.90;;;;;;5095695;28;20033;-69
2023/01/31 04:20:52;;;;;;;;;;;2.70;99.90;;;;;;5091565;28;20322;-69
2023/01/31 04:23:17;;;;;;;;;;;2.70;99.90;;;;;;5075444;28;19912;-69
2023/01/31 04:25:43;;;;;;;;;;;2.60;99.90;;;;;;5075502;28;19919;-69
2023/01/31 04:28:09;;;;;;;;;;;2.60;99.90;;;;;;5075289;28;20287;-68
2023/01/31 04:30:34;;;;;;;;;;;2.60;99.90;;;;;;5076761;28;19912;-68
2023/01/31 04:33:00;;;;;;;;;;;2.60;99.90;;;;;;5095514;28;19919;-68
2023/01/31 04:35:25;;;;;;;;;;;2.60;99.90;;;;;;5077241;28;19923;-68
2023/01/31 04:37:51;;;;;;;;;;;2.60;99.90;;;;;;5077279;28;19925;-68
2023/01/31 04:40:17;;;;;;;;;;;2.60;99.90;;;;;;5077306;28;20014;-68
2023/01/31 04:42:42;;;;;;;;;;;2.60;99.90;;;;;;5075675;28;19938;-68
2023/01/31 04:45:08;;;;;;;;;;;2.60;99.90;;;;;;5074727;28;19999;-68
2023/01/31 04:47:34;;;;;;;;;;;2.80;99.90;;;;;;5056821;28;19912;-68
2023/01/31 04:49:59;;;;;;;;;;;2.70;99.90;;;;;;5074517;28;19912;-68
2023/01/31 04:52:25;;;;;;;;;;;2.70;99.90;;;;;;5090566;28;19912;-68
2023/01/31 04:54:51;;;;;;;;;;;2.70;99.90;;;;;;5094639;28;19938;-67
2023/01/31 04:57:16;;;;;;;;;;;2.70;99.90;;;;;;5091627;28;19938;-67
2023/01/31 04:59:42;;;;;;;;;;;2.60;99.90;;;;;;5094973;28;19916;-68
2023/01/31 05:02:07;;;;;;;;;;;2.70;99.90;;;;;;5080780;28;20276;-68
2023/01/31 05:04:33;;;;;;;;;;;2.60;99.90;;;;;;5074628;28;19916;-68
2023/01/31 05:06:58;;;;;;;;;;;2.70;99.90;;;;;;5074380;28;19912;-68
2023/01/31 05:09:24;;;;;;;;;;;2.70;99.90;;;;;;5074292;28;20379;-68
2023/01/31 05:11:50;;;;;;;;;;;2.60;99.90;;;;;;5085916;28;20006;-67
2023/01/31 05:14:16;;;;;;;;;;;2.60;99.90;;;;;;5094891;28;19951;-68
2023/01/31 05:16:46;;;;;;;;;;;2.60;99.90;;;;;;5094790;28;20402;-67
2023/01/31 05:19:15;;;;;;;;;;;2.60;99.90;;;;;;5071014;28;19952;-68
2023/01/31 05:21:59;;;;;;;;;;;2.60;99.90;;;;;;5084355;28;19919;-68
2023/01/31 05:24:28;;;;;;;;;;;2.60;99.90;;;;;;5094543;28;19912;-68
2023/01/31 05:26:57;;;;;;;;;;;2.60;99.90;;;;;;5076366;28;20287;-68
2023/01/31 05:29:24;;;;;;;;;;;2.60;99.90;;;;;;5094430;28;19919;-68
2023/01/31 05:31:53;;;;;;;;;;;2.60;99.90;;;;;;5083152;28;19912;-68
2023/01/31 05:34:19;;;;;;;;;;;2.60;99.90;;;;;;5074180;28;19912;-68
2023/01/31 05:36:45;;;;;;;;;;;2.70;99.90;;;;;;5074190;28;19947;-67
2023/01/31 05:39:10;;;;;;;;;;;2.70;99.90;;;;;;5056404;28;20279;-67
2023/01/31 05:41:36;;;;;;;;;;;2.70;99.90;;;;;;5070575;28;19917;-68
2023/01/31 05:44:02;;;;;;;;;;;2.70;99.90;;;;;;5068795;28;20433;-67
2023/01/31 05:46:27;;;;;;;;;;;2.70;99.90;;;;;;5074375;28;19920;-67
2023/01/31 05:48:53;;;;;;;;;;;2.70;99.90;;;;;;5074300;28;20288;-68
2023/01/31 05:51:18;;;;;;;;;;;2.70;99.90;;;;;;5080651;28;19912;-68
2023/01/31 05:53:44;;;;;;;;;;;2.70;99.90;;;;;;5094006;28;19997;-67
2023/01/31 05:56:10;;;;;;;;;;;2.70;99.90;;;;;;5093041;28;19986;-67
2023/01/31 05:58:36;;;;;;;;;;;2.70;99.90;;;;;;5075356;28;20419;-67
2023/01/31 06:01:01;;;;;;;;;;;2.70;99.90;;;;;;5089849;28;19963;-67
2023/01/31 06:03:27;;;;;;;;;;;2.70;99.90;;;;;;5075917;28;19916;-67
2023/01/31 06:05:52;;;;;;;;;;;2.70;99.90;;;;;;5077691;28;19913;-67
2023/01/31 06:08:18;;;;;;;;;;;2.70;99.90;;;;;;5078052;28;19918;-67
2023/01/31 06:10:43;;;;;;;;;;;2.70;99.90;;;;;;5078871;28;19912;-67
2023/01/31 06:13:09;;;;;;;;;;;2.70;99.90;;;;;;5078113;28;19995;-67
2023/01/31 06:15:36;;;;;;;;;;;2.70;99.90;;;;;;5096111;28;20018;-67
2023/01/31 06:18:02;;;;;;;;;;;2.70;99.90;;;;;;5085499;28;19942;-67
2023/01/31 06:20:28;;;;;;;;;;;2.70;99.90;;;;;;5096260;28;19947;-67
2023/01/31 06:22:54;;;;;;;;;;;2.70;99.90;;;;;;5095917;28;19952;-67
2023/01/31 06:25:19;;;;;;;;;;;2.60;99.90;;;;;;5096927;28;19961;-67
2023/01/31 06:27:45;;;;;;;;;;;2.60;99.90;;;;;;5097549;28;19912;-68
2023/01/31 06:30:11;;;;;;;;;;;3.30;99.90;;;;;;5097962;28;19916;-66
2023/01/31 06:32:36;;;;;;;;;;;3.50;99.90;;;;;;5096946;28;19916;-67
2023/01/31 06:35:03;;;;;;;;;;;3.60;99.90;;;;;;5097714;28;19916;-67
2023/01/31 06:37:28;;;;;;;;;;;3.20;99.90;;;;;;5094858;28;19916;-67
2023/01/31 06:39:54;;;;;;;;;;;3.00;99.90;;;;;;5097604;28;20003;-67
2023/01/31 06:42:19;;;;;;;;;;;2.90;99.90;;;;;;5097281;28;19958;-68
2023/01/31 06:44:45;;;;;;;;;;;2.80;99.90;;;;;;5095946;28;19912;-68
2023/01/31 06:47:11;;;;;;;;;;;2.80;99.90;;;;;;5097565;28;19961;-67
2023/01/31 06:49:38;;;;;;;;;;;2.80;99.90;;;;;;5096167;28;19920;-67
2023/01/31 06:52:04;;;;;;;;;;;2.70;99.90;;;;;;5097282;28;19927;-67
2023/01/31 06:54:29;;;;;;;;;;;2.70;99.90;;;;;;5096135;28;19912;-67
2023/01/31 06:56:55;;;;;;;;;;;2.80;99.90;;;;;;5097434;28;19916;-67
2023/01/31 06:59:20;;;;;;;;;;;2.70;99.90;;;;;;5095746;28;20001;-68
2023/01/31 07:01:46;;;;;;;;;;;2.70;99.90;;;;;;5095654;28;19912;-68
2023/01/31 07:04:12;;;;;;;;;;;2.70;99.90;;;;;;5095811;28;19978;-67
2023/01/31 07:06:37;;;;;;;;;;;2.70;99.90;;;;;;5097187;28;19912;-67
2023/01/31 07:09:03;;;;;;;;;;;2.70;99.90;;;;;;5097364;28;19965;-67
2023/01/31 07:11:29;;;;;;;;;;;2.70;99.90;;;;;;5097192;28;19927;-67
2023/01/31 07:13:54;;;;;;;;;;;2.70;99.90;;;;;;5096166;28;20348;-67
2023/01/31 07:16:21;;;;;;;;;;;2.80;99.90;;;;;;5097073;28;20279;-67
2023/01/31 07:18:47;;;;;;;;;;;2.80;99.90;;;;;;5096960;28;19923;-67
2023/01/31 07:21:12;;;;;;;;;;;2.80;99.90;;;;;;5092528;28;19917;-67
2023/01/31 07:23:38;;;;;;;;;;;2.80;99.90;;;;;;5076021;28;19913;-67
2023/01/31 07:26:04;;;;;;;;;;;2.80;99.90;;;;;;5076655;28;19912;-67
2023/01/31 07:28:30;;;;;;;;;;;2.70;99.90;;;;;;5076683;28;19912;-67
2023/01/31 07:31:02;;;;;;;;;;;2.80;99.90;;;;;;5078204;28;20363;-68
2023/01/31 07:33:28;;;;;;;;;;;2.80;99.90;;;;;;5096674;28;19912;-67
2023/01/31 07:35:54;;;;;;;;;;;2.80;99.90;;;;;;5096533;28;20271;-67
2023/01/31 07:38:20;;;;;;;;;;;2.80;99.90;;;;;;5096674;28;19919;-67
2023/01/31 07:40:45;;;;;;;;;;;2.80;99.90;;;;;;5082827;28;19913;-66
2023/01/31 07:43:11;;;;;;;;;;;2.80;99.90;;;;;;5093504;28;19912;-67
2023/01/31 07:45:37;;;;;;;;;;;2.80;99.90;;;;;;5094600;28;20264;-70
2023/01/31 07:48:05;;;;;;;;;;;2.80;99.90;;;;;;5076144;28;19912;-70
2023/01/31 07:50:30;;;;;;;;;;;2.90;99.90;;;;;;5075678;28;19960;-68
2023/01/31 07:52:57;;;;;;;;;;;2.90;99.90;;;;;;5075314;28;20005;-66
2023/01/31 07:55:22;;;;;;;;;;;2.90;99.90;;;;;;5053762;28;19920;-69
2023/01/31 07:57:48;;;;;;;;;;;2.90;99.90;;;;;;5055871;28;19927;-69
2023/01/31 08:05:44;;;;;;;;;;;3.00;99.90;;;;;;5094091;28;20388;-67
2023/01/31 08:08:10;;;;;;;;;;;3.00;99.90;;;;;;5093906;28;19912;-66
2023/01/31 08:10:36;;;;;;;;;;;3.10;99.90;;;;;;5075815;28;19912;-66
2023/01/31 08:13:01;;;;;;;;;;;3.10;99.90;;;;;;5075137;28;19924;-66
2023/01/31 08:15:27;;;;;;;;;;;3.10;99.90;;;;;;5073276;28;19920;-66
2023/01/31 08:17:52;;;;;;;;;;;3.10;99.90;;;;;;5083579;28;19916;-66
2023/01/31 08:20:18;;;;;;;;;;;3.20;99.90;;;;;;5095831;28;19963;-66
2023/01/31 08:22:43;;;;;;;;;;;3.10;99.90;;;;;;5095650;28;19926;-67
2023/01/31 08:25:09;;;;;;;;;;;3.20;99.90;;;;;;5095454;28;19912;-67
2023/01/31 08:27:35;;;;;;;;;;;3.20;99.90;;;;;;5095734;28;20355;-68
2023/01/31 08:30:01;;;;;;;;;;;3.20;99.90;;;;;;5095563;28;19923;-67
2023/01/31 08:32:27;;;;;;;;;;;3.30;99.90;;;;;;5095311;28;19912;-69
2023/01/31 08:34:52;;;;;;;;;;;3.30;99.90;;;;;;5095339;28;19916;-68
2023/01/31 08:37:19;;;;;;;;;;;3.30;99.90;;;;;;5095390;28;19916;-67
2023/01/31 08:39:44;;;;;;;;;;;3.30;99.90;;;;;;5094033;28;19913;-68
2023/01/31 08:42:10;;;;;;;;;;;4.00;99.90;;;;;;5093246;28;20398;-67
2023/01/31 08:44:37;;;;;;;;;;;4.20;99.90;;;;;;5095295;28;20280;-67
2023/01/31 08:47:02;;;;;;;;;;;4.20;99.90;;;;;;5095597;28;19919;-67
2023/01/31 08:49:30;;;;;;;;;;;4.10;99.90;;;;;;5095119;28;19916;-68
2023/01/31 08:51:55;;;;;;;;;;;4.20;99.90;;;;;;5095023;28;19916;-68
2023/01/31 08:54:21;;;;;;;;;;;4.30;99.90;;;;;;5108159;28;19916;-67
2023/01/31 08:56:46;;;;;;;;;;;4.30;99.90;;;;;;5112844;28;19920;-66
2023/01/31 08:59:12;;;;;;;;;;;4.00;99.90;;;;;;5113153;28;19911;-67
2023/01/31 09:01:38;;;;;;;;;;;4.10;99.90;;;;;;5099678;28;19959;-67
2023/01/31 09:04:04;;;;;;;;;;;4.10;99.90;;;;;;5092514;28;19952;-69
2023/01/31 09:06:29;;;;;;;;;;;3.90;99.90;;;;;;5092256;28;20328;-67
2023/01/31 09:08:58;;;;;;;;;;;4.00;99.90;;;;;;5092154;28;19912;-69
2023/01/31 09:11:26;;;;;;;;;;;4.20;99.90;;;;;;5090114;28;19943;-67
2023/01/31 09:13:51;;;;;;;;;;;4.30;99.90;;;;;;5093117;28;19912;-67
2023/01/31 09:16:17;;;;;;;;;;;4.30;99.90;;;;;;5094695;28;20349;-67
2023/01/31 09:18:43;;;;;;;;;;;4.50;99.90;;;;;;5094216;28;20026;-68
2023/01/31 09:21:10;;;;;;;;;;;4.50;99.90;;;;;;5092763;28;19916;-67
2023/01/31 09:23:36;;;;;;;;;;;4.50;99.90;;;;;;5074567;28;19995;-67
2023/01/31 09:26:02;;;;;;;;;;;4.50;99.90;;;;;;5072303;28;19955;-68
2023/01/31 09:28:28;;;;;;;;;;;4.40;99.90;;;;;;5074672;28;19912;-68
2023/01/31 09:30:53;;;;;;;;;;;4.80;99.90;;;;;;5073148;28;20025;-68
2023/01/31 09:33:20;;;;;;;;;;;4.80;99.90;;;;;;5093560;28;19912;-67
2023/01/31 09:35:59;;;;;;;;;;;5.20;99.90;;;;;;5092574;28;20343;-67
2023/01/31 09:38:25;;;;;;;;;;;5.30;99.90;;;;;;5074003;28;19955;-67
2023/01/31 09:40:51;;;;;;;;;;;5.20;99.90;;;;;;5092642;28;19974;-69
2023/01/31 09:43:18;;;;;;;;;;;5.60;99.90;;;;;;5073529;28;19912;-67
2023/01/31 09:45:44;;;;;;;;;;;5.80;99.90;;;;;;5072579;28;19913;-67
2023/01/31 09:48:20;;;;;;;;;;;5.50;99.90;;;;;;5072978;28;19912;-67
2023/01/31 09:50:48;;;;;;;;;;;5.80;99.90;;;;;;5074367;28;20382;-68
2023/01/31 09:53:20;;;;;;;;;;;5.90;99.90;;;;;;5092899;28;19965;-67
2023/01/31 09:56:01;;;;;;;;;;;6.20;99.90;;;;;;5094301;28;19920;-68
2023/01/31 09:58:49;;;;;;;;;;;5.90;99.90;;;;;;5094522;28;19918;-68
2023/01/31 10:01:34;;;;;;;;;;;6.00;99.90;;;;;;5063066;28;19912;-68
2023/01/31 10:04:03;;;;;;;;;;;6.40;99.90;;;;;;5073948;28;19995;-69
2023/01/31 10:06:47;;;;;;;;;;;6.60;99.90;;;;;;5055931;28;19913;-68
2023/01/31 10:09:13;;;;;;;;;;;6.50;99.90;;;;;;5074101;28;19913;-68
2023/01/31 10:11:41;;;;;;;;;;;6.80;99.90;;;;;;5061285;28;19919;-68
2023/01/31 10:14:25;;;;;;;;;;;6.90;99.90;;;;;;5094280;28;20022;-68
2023/01/31 10:17:10;;;;;;;;;;;7.20;99.90;;;;;;5094276;28;19931;-68
2023/01/31 10:19:38;;;;;;;;;;;7.20;99.90;;;;;;5076393;28;20390;-68
2023/01/31 10:22:06;;;;;;;;;;;7.20;99.90;;;;;;5085604;28;19943;-68
2023/01/31 10:24:32;;;;;;;;;;;7.30;99.90;;;;;;5073876;28;20268;-69
2023/01/31 10:27:03;;;;;;;;;;;7.40;99.90;;;;;;5056018;28;19913;-68
2023/01/31 10:29:36;;;;;;;;;;;6.90;99.90;;;;;;5073998;28;19919;-68
2023/01/31 10:32:04;;;;;;;;;;;7.50;99.90;;;;;;5081852;28;19938;-68
2023/01/31 10:34:33;;;;;;;;;;;7.00;99.90;;;;;;5094045;28;19918;-68
2023/01/31 10:37:15;;;;;;;;;;;6.90;99.90;;;;;;5093877;28;19920;-68
2023/01/31 10:39:44;;;;;;;;;;;6.70;99.90;;;;;;5092182;28;19926;-68
2023/01/31 10:42:28;;;;;;;;;;;6.70;99.90;;;;;;5083526;28;19919;-69
2023/01/31 10:44:56;;;;;;;;;;;7.00;99.90;;;;;;5054023;28;20002;-68
2023/01/31 10:47:34;;;;;;;;;;;7.40;99.90;;;;;;5073279;28;19912;-68
2023/01/31 10:50:00;;;;;;;;;;;7.50;99.90;;;;;;5057919;28;20343;-68
2023/01/31 10:52:29;;;;;;;;;;;7.50;99.90;;;;;;5086068;28;19920;-68
2023/01/31 10:55:21;;;;;;;;;;;7.30;99.90;;;;;;5094404;28;19938;-67
2023/01/31 10:57:47;;;;;;;;;;;7.20;99.90;;;;;;5070665;28;19962;-67
2023/01/31 11:00:17;;;;;;;;;;;7.80;99.90;;;;;;5037155;28;19917;-67
2023/01/31 11:02:43;;;;;;;;;;;8.00;99.90;;;;;;5081933;28;19999;-67
2023/01/31 11:05:15;;;;;;;;;;;8.10;99.90;;;;;;5095803;28;19974;-68
2023/01/31 11:07:40;;;;;;;;;;;7.90;99.90;;;;;;5078400;28;20309;-68
2023/01/31 11:10:23;;;;;;;;;;;7.70;99.90;;;;;;5097248;28;19912;-67
2023/01/31 11:13:00;;;;;;;;;;;8.00;99.90;;;;;;5082685;28;19934;-67
2023/01/31 11:15:28;;;;;;;;;;;8.10;99.90;;;;;;5057064;28;19920;-67
2023/01/31 11:17:58;;;;;;;;;;;7.50;99.90;;;;;;5083103;28;19916;-67
2023/01/31 11:20:34;;;;;;;;;;;7.20;99.90;;;;;;5097081;28;20007;-67
2023/01/31 11:23:00;;;;;;;;;;;7.40;99.90;;;;;;5094923;28;20853;-67
2023/01/31 11:25:29;;;;;;;;;;;7.60;99.90;;;;;;5093446;28;20007;-67
2023/01/31 11:28:04;;;;;;;;;;;8.10;99.90;;;;;;5095038;28;19912;-67
2023/01/31 11:30:34;;;;;;;;;;;8.30;99.90;;;;;;5094692;28;20267;-67
2023/01/31 11:33:00;;;;;;;;;;;8.60;99.90;;;;;;5094507;28;19916;-67
2023/01/31 11:35:27;;;;;;;;;;;8.90;99.90;;;;;;5093376;28;21003;-67
2023/01/31 11:37:56;;;;;;;;;;;8.70;99.90;;;;;;5094764;28;19994;-67
2023/01/31 11:40:30;;;;;;;;;;;8.50;99.90;;;;;;5094575;28;20347;-67
2023/01/31 11:43:09;;;;;;;;;;;7.70;99.90;;;;;;5094546;28;19919;-67
2023/01/31 11:45:36;;;;;;;;;;;7.90;99.90;;;;;;5093552;28;19916;-67
2023/01/31 11:48:07;;;;;;;;;;;7.80;99.90;;;;;;5094118;28;20328;-67
2023/01/31 11:50:34;;;;;;;;;;;8.00;99.90;;;;;;5093302;28;19919;-67
2023/01/31 11:53:20;;;;;;;;;;;8.20;99.90;;;;;;5094506;28;20012;-67
2023/01/31 11:55:47;;;;;;;;;;;7.80;99.90;;;;;;5095611;28;19961;-67
2023/01/31 11:58:21;;;;;;;;;;;7.40;99.90;;;;;;5094893;28;20377;-67
2023/01/31 12:00:52;;;;;;;;;;;7.30;99.90;;;;;;5095560;28;20333;-67
2023/01/31 12:03:18;;;;;;;;;;;7.40;99.90;;;;;;5096267;28;19912;-67
2023/01/31 12:05:45;;;;;;;;;;;7.80;99.90;;;;;;5096244;28;19965;-67
2023/01/31 12:08:30;;;;;;;;;;;7.70;99.90;;;;;;5096170;28;19912;-67
2023/01/31 12:10:57;;;;;;;;;;;7.80;99.90;;;;;;5096056;28;19951;-67
2023/01/31 12:13:23;;;;;;;;;;;7.30;99.90;;;;;;5095958;28;19939;-67
2023/01/31 12:15:50;;;;;;;;;;;8.10;99.90;;;;;;5096056;28;19920;-67
2023/01/31 12:18:20;;;;;;;;;;;7.50;99.90;;;;;;5094368;28;19916;-67
2023/01/31 12:20:51;;;;;;;;;;;7.30;99.90;;;;;;5094398;28;20272;-67
2023/01/31 12:23:23;;;;;;;;;;;7.50;99.90;;;;;;5094182;28;19999;-67
2023/01/31 12:25:57;;;;;;;;;;;7.60;99.90;;;;;;5094403;28;20047;-67
2023/01/31 12:28:31;;;;;;;;;;;7.20;99.90;;;;;;5095799;28;19920;-67
2023/01/31 12:30:59;;;;;;;;;;;7.10;99.90;;;;;;5095914;28;19916;-67
2023/01/31 12:33:33;;;;;;;;;;;7.20;99.90;;;;;;5095683;28;19912;-67
2023/01/31 12:36:08;;;;;;;;;;;7.50;99.90;;;;;;5095425;28;20409;-67
2023/01/31 12:39:12;;;;;;;;;;;8.00;99.90;;;;;;5095616;28;20006;-67
2023/01/31 12:41:55;;;;;;;;;;;7.20;99.90;;;;;;5052846;28;19917;-67
2023/01/31 12:44:26;;;;;;;;;;;6.90;99.90;;;;;;5052835;28;20365;-67
2023/01/31 12:47:01;;;;;;;;;;;6.60;99.90;;;;;;5079106;28;19938;-67
2023/01/31 12:49:26;;;;;;;;;;;6.60;99.90;;;;;;5094064;28;19912;-67
2023/01/31 12:51:58;;;;;;;;;;;6.50;99.90;;;;;;5095148;28;19912;-66
2023/01/31 12:54:23;;;;;;;;;;;6.40;99.90;;;;;;5092191;28;19919;-67
2023/01/31 12:57:04;;;;;;;;;;;6.20;99.90;;;;;;5091700;28;19924;-67
2023/01/31 12:59:30;;;;;;;;;;;6.20;99.90;;;;;;5093179;28;19912;-67
2023/01/31 13:01:59;;;;;;;;;;;6.20;99.90;;;;;;5094988;28;19912;-67
2023/01/31 13:04:38;;;;;;;;;;;6.20;99.90;;;;;;5093764;28;19964;-67
2023/01/31 13:07:26;;;;;;;;;;;6.20;99.90;;;;;;5095010;28;20398;-67
2023/01/31 13:09:53;;;;;;;;;;;6.20;99.90;;;;;;5095097;28;19961;-67
2023/01/31 13:12:20;;;;;;;;;;;6.30;99.90;;;;;;5094105;28;20236;-67
2023/01/31 13:14:48;;;;;;;;;;;6.30;99.90;;;;;;5094828;28;19999;-67
2023/01/31 13:17:17;;;;;;;;;;;6.40;99.90;;;;;;5094806;28;20371;-67
2023/01/31 13:19:51;;;;;;;;;;;6.40;99.90;;;;;;5094660;28;19966;-66
2023/01/31 13:22:25;;;;;;;;;;;6.90;99.90;;;;;;5092672;28;19912;-67
2023/01/31 13:24:58;;;;;;;;;;;7.20;99.90;;;;;;5093692;28;19912;-67
2023/01/31 13:27:27;;;;;;;;;;;6.80;99.90;;;;;;5094864;28;20045;-66
2023/01/31 13:30:01;;;;;;;;;;;6.70;99.90;;;;;;5093475;28;20355;-66
2023/01/31 13:32:31;;;;;;;;;;;6.80;99.90;;;;;;5094884;28;19919;-66
2023/01/31 13:35:19;;;;;;;;;;;6.80;99.90;;;;;;5094605;28;20245;-67
2023/01/31 13:37:47;;;;;;;;;;;6.90;99.90;;;;;;5094447;28;19947;-67
2023/01/31 13:40:12;;;;;;;;;;;6.80;99.90;;;;;;5094325;28;20007;-67
2023/01/31 13:42:38;;;;;;;;;;;6.80;99.90;;;;;;5093804;28;19955;-66
2023/01/31 13:45:06;;;;;;;;;;;6.70;99.90;;;;;;5093067;28;19965;-66
2023/01/31 13:48:04;;;;;;;;;;;7.00;99.90;;;;;;5093346;28;19916;-67
2023/01/31 13:50:36;;;;;;;;;;;7.10;99.90;;;;;;5070680;28;19913;-67
2023/01/31 13:53:04;;;;;;;;;;;7.10;99.90;;;;;;5092956;28;19916;-67
2023/01/31 13:55:33;;;;;;;;;;;7.10;99.90;;;;;;5094308;28;19916;-67
2023/01/31 13:58:03;;;;;;;;;;;6.90;99.90;;;;;;5094557;28;19922;-66
2023/01/31 14:00:47;;;;;;;;;;;6.70;99.90;;;;;;5093137;28;19916;-66
2023/01/31 14:03:14;;;;;;;;;;;6.60;99.90;;;;;;5094210;28;19912;-66
2023/01/31 14:05:39;;;;;;;;;;;6.70;99.90;;;;;;5094396;28;19919;-66
2023/01/31 14:08:24;;;;;;;;;;;6.70;99.90;;;;;;5093107;28;19913;-66
2023/01/31 14:10:49;;;;;;;;;;;6.70;99.90;;;;;;5094373;28;19916;-66
2023/01/31 14:13:19;;;;;;;;;;;6.70;99.90;;;;;;5094335;28;19919;-66
2023/01/31 14:15:46;;;;;;;;;;;6.60;99.90;;;;;;5094178;28;19920;-66
2023/01/31 14:18:32;;;;;;;;;;;6.60;99.90;;;;;;5094106;28;19916;-66
2023/01/31 14:21:17;;;;;;;;;;;6.40;99.90;;;;;;5094191;28;19951;-67
2023/01/31 14:23:45;;;;;;;;;;;6.30;99.90;;;;;;5096156;28;19912;-66
2023/01/31 14:26:30;;;;;;;;;;;6.30;99.90;;;;;;5098038;28;19912;-67
2023/01/31 14:28:55;;;;;;;;;;;6.30;99.90;;;;;;5098229;28;19951;-67
2023/01/31 14:31:22;;;;;;;;;;;6.30;99.90;;;;;;5097935;28;20327;-66
2023/01/31 14:33:49;;;;;;;;;;;6.20;99.90;;;;;;5097656;28;19927;-66
2023/01/31 14:36:20;;;;;;;;;;;6.20;99.90;;;;;;5097718;28;19920;-66
2023/01/31 14:38:56;;;;;;;;;;;6.10;99.90;;;;;;5096505;28;19912;-66
2023/01/31 14:41:28;;;;;;;;;;;6.10;99.90;;;;;;5097754;28;19912;-66
2023/01/31 14:44:03;;;;;;;;;;;6.20;99.90;;;;;;5097584;28;19951;-66
2023/01/31 14:46:41;;;;;;;;;;;6.30;99.90;;;;;;5097670;28;20361;-67
2023/01/31 14:49:06;;;;;;;;;;;6.40;99.90;;;;;;5096067;28;19965;-67